Fowlston, Georgia
Current Conditions -  °F | °C
As of 1:15 AM on Wednesday 26 Nov 2014 (Local Time) from K2J9 Reporting Station
Overcast Overcast  
Wind Chill: 44°   Ceiling: 3600
Heat Index: 46°   Visibility: 4mi
Dew Point: 45°   Wind: 6mph
Humidity: 93%   Direction: 340°NNW
Pressure: 30.07"   Gusts: NA
Location:  30.79°N, 84.55°W
Report Text: K2J9 260515Z AUTO 34005KT 4SM FEW021 SCT030 OVC036 08/07 A3007 RMK AO1 P0151
Loading
Personal Weather Stations






























Interactive Weather Map New forecast layout! Learn more

10-Day Weather Forecast

Advertisements
Track Severe Weather on mobile